Time;durP1;ratioP1;P1;durP2;ratioP2;P2;SDS_P1;SDS_P2;PMS_P1;PMS_P2;Temp;Humidity;BMP_temperature;BMP_pressure;BME280_temperature;BME280_humidity;BME280_pressure;Samples;Min_cycle;Max_cycle;Signal;HPM_P1;HPM_P2
2022/07/21 00:00:42;;;;;;;19.23;17.53;;;20.60;99.90;;;;;;5017034;28;20183;-57
2022/07/21 00:03:08;;;;;;;18.40;16.80;;;20.60;99.90;;;;;;5012703;28;20325;-57
2022/07/21 00:05:34;;;;;;;20.10;18.10;;;20.50;99.90;;;;;;5012226;28;20186;-56
2022/07/21 00:08:00;;;;;;;19.58;18.05;;;20.60;99.90;;;;;;5012141;28;20197;-56
2022/07/21 00:10:26;;;;;;;19.63;17.83;;;20.60;99.90;;;;;;5013133;28;20183;-57
2022/07/21 00:12:54;;;;;;;20.48;18.50;;;20.70;99.90;;;;;;5014302;28;20437;-57
2022/07/21 00:15:22;;;;;;;20.25;18.55;;;20.60;99.90;;;;;;5010169;28;20774;-57
2022/07/21 00:17:47;;;;;;;22.85;20.85;;;20.70;99.90;;;;;;5010160;28;20214;-57
2022/07/21 00:20:14;;;;;;;23.20;21.10;;;20.70;99.90;;;;;;5011169;28;20636;-57
2022/07/21 00:22:40;;;;;;;18.23;16.48;;;20.70;99.90;;;;;;5008886;28;20187;-57
2022/07/21 00:25:07;;;;;;;19.73;18.03;;;20.80;99.90;;;;;;5006246;28;20551;-58
2022/07/21 00:27:33;;;;;;;21.58;19.58;;;21.00;99.90;;;;;;5011314;28;20456;-57
2022/07/21 00:29:59;;;;;;;18.67;16.98;;;21.00;99.90;;;;;;5008863;28;20237;-57
2022/07/21 00:32:25;;;;;;;19.33;17.63;;;21.00;99.90;;;;;;5009168;28;20210;-57
2022/07/21 00:34:50;;;;;;;19.20;17.70;;;20.90;99.90;;;;;;5009334;28;20212;-57
2022/07/21 00:37:16;;;;;;;17.90;16.40;;;20.80;99.90;;;;;;5010814;28;20261;-57
2022/07/21 00:39:41;;;;;;;19.27;17.67;;;20.90;99.90;;;;;;5010908;28;20187;-58
2022/07/21 00:42:07;;;;;;;16.00;14.70;;;21.00;99.90;;;;;;5009428;28;20241;-57
2022/07/21 00:44:33;;;;;;;17.53;16.00;;;21.20;99.90;;;;;;5005075;28;20210;-57
2022/07/21 00:46:58;;;;;;;17.70;16.10;;;21.40;99.90;;;;;;5009159;28;20214;-56
2022/07/21 00:49:24;;;;;;;17.43;15.97;;;21.30;99.90;;;;;;5005104;28;20182;-57
2022/07/21 00:51:51;;;;;;;18.07;16.57;;;21.80;99.90;;;;;;5010166;28;20233;-57
2022/07/21 00:54:18;;;;;;;17.47;15.67;;;21.30;99.90;;;;;;5009832;28;20441;-58
2022/07/21 00:56:45;;;;;;;18.00;16.38;;;21.30;99.90;;;;;;5008482;28;20544;-56
2022/07/21 00:59:11;;;;;;;17.83;16.42;;;21.20;99.90;;;;;;5004627;28;20611;-57
2022/07/21 01:01:37;;;;;;;17.73;16.23;;;21.10;99.90;;;;;;5026303;28;20231;-57
2022/07/21 01:04:03;;;;;;;17.65;16.15;;;21.10;99.90;;;;;;5011205;28;20282;-57
2022/07/21 01:06:29;;;;;;;18.80;17.00;;;21.00;99.90;;;;;;5009985;28;20278;-56
2022/07/21 01:08:54;;;;;;;18.73;17.07;;;20.90;99.90;;;;;;5010361;28;20667;-56
2022/07/21 01:11:21;;;;;;;17.80;16.40;;;20.90;99.90;;;;;;5011237;28;20178;-57
2022/07/21 01:13:47;;;;;;;17.05;15.60;;;20.80;99.90;;;;;;5010785;28;20191;-57
2022/07/21 01:16:14;;;;;;;17.27;15.95;;;20.80;99.90;;;;;;5009691;28;20226;-57
2022/07/21 01:18:40;;;;;;;16.57;15.07;;;20.70;99.90;;;;;;5011400;28;20265;-56
2022/07/21 01:21:35;;;;;;;18.58;16.65;;;20.70;99.90;;;;;;5008582;28;20444;-57
2022/07/21 01:24:02;;;;;;;17.27;15.85;;;20.70;99.90;;;;;;5008081;28;20302;-57
2022/07/21 01:26:28;;;;;;;16.67;15.35;;;20.80;99.90;;;;;;5009613;28;20190;-57
2022/07/21 01:28:55;;;;;;;17.15;15.65;;;20.90;99.90;;;;;;5008543;28;20189;-57
2022/07/21 01:31:20;;;;;;;16.83;15.27;;;20.90;99.90;;;;;;5008788;28;20182;-58
2022/07/21 01:33:46;;;;;;;17.03;15.63;;;20.90;99.90;;;;;;5006638;28;20186;-57
2022/07/21 01:36:12;;;;;;;16.57;15.20;;;21.40;99.90;;;;;;5009749;28;20254;-56
2022/07/21 01:41:30;;;;;;;15.73;14.32;;;20.70;99.90;;;;;;5010765;28;20197;-57
2022/07/21 01:44:22;;;;;;;16.10;14.73;;;20.80;99.90;;;;;;5008864;28;20232;-57
2022/07/21 01:46:50;;;;;;;16.98;15.52;;;20.90;99.90;;;;;;5007235;28;20229;-57
2022/07/21 01:49:17;;;;;;;15.00;13.70;;;20.90;99.90;;;;;;5010987;28;20578;-57
2022/07/21 01:51:43;;;;;;;13.90;12.68;;;21.00;99.90;;;;;;5009064;28;20550;-57
2022/07/21 01:54:09;;;;;;;14.10;12.80;;;21.00;99.90;;;;;;5011665;28;20179;-57
2022/07/21 01:56:36;;;;;;;13.70;12.50;;;21.10;99.90;;;;;;5008662;28;20214;-56
2022/07/21 01:59:02;;;;;;;13.63;12.43;;;21.00;99.90;;;;;;5009839;28;20198;-57
2022/07/21 02:01:29;;;;;;;13.30;12.20;;;21.00;99.90;;;;;;5009203;28;20194;-57
2022/07/21 02:03:57;;;;;;;14.15;12.90;;;21.00;99.90;;;;;;5007285;28;20222;-57
2022/07/21 02:06:23;;;;;;;13.70;12.60;;;20.90;99.90;;;;;;5007946;28;20251;-57
2022/07/21 02:08:49;;;;;;;13.52;12.18;;;20.90;99.90;;;;;;5009694;28;20183;-56
2022/07/21 02:11:16;;;;;;;14.37;12.97;;;20.90;99.90;;;;;;5010670;28;20301;-56
2022/07/21 02:13:42;;;;;;;12.57;11.48;;;20.90;99.90;;;;;;5007530;28;20197;-57
2022/07/21 02:16:08;;;;;;;12.00;10.97;;;20.90;99.90;;;;;;5009580;28;20199;-56
2022/07/21 02:18:35;;;;;;;13.23;11.77;;;20.80;99.90;;;;;;5009729;28;20453;-56
2022/07/21 02:21:01;;;;;;;12.82;11.73;;;20.80;99.90;;;;;;5009002;28;20449;-56
2022/07/21 02:23:27;;;;;;;13.00;12.00;;;20.90;99.90;;;;;;5010208;28;20786;-56
2022/07/21 02:25:53;;;;;;;11.38;10.40;;;20.80;99.90;;;;;;5009125;28;21049;-55
2022/07/21 02:28:20;;;;;;;11.80;10.90;;;20.70;99.90;;;;;;5009753;28;20532;-57
2022/07/21 02:30:46;;;;;;;13.05;11.95;;;20.70;99.90;;;;;;5008482;28;20190;-57
2022/07/21 02:33:12;;;;;;;12.30;11.20;;;20.50;99.90;;;;;;5007249;28;20190;-57
2022/07/21 02:35:39;;;;;;;12.33;11.10;;;20.40;99.90;;;;;;5006066;28;20194;-56
2022/07/21 02:38:04;;;;;;;11.68;10.57;;;20.50;99.90;;;;;;5009312;28;20806;-57
2022/07/21 02:40:31;;;;;;;12.27;11.03;;;20.50;99.90;;;;;;5009961;28;20190;-56
2022/07/21 02:42:57;;;;;;;10.75;9.85;;;20.40;99.90;;;;;;5009390;28;20210;-57
2022/07/21 02:45:22;;;;;;;13.18;12.10;;;20.40;99.90;;;;;;5007782;28;20202;-57
2022/07/21 02:48:05;;;;;;;12.57;11.47;;;20.50;99.90;;;;;;5009088;28;20210;-57
2022/07/21 02:50:34;;;;;;;11.80;10.90;;;20.50;99.90;;;;;;5007088;28;20187;-57
2022/07/21 02:53:02;;;;;;;13.35;11.07;;;20.70;99.90;;;;;;5008453;28;20210;-56
2022/07/21 02:55:29;;;;;;;12.45;11.25;;;20.60;99.90;;;;;;5005579;28;20294;-57
2022/07/21 02:58:17;;;;;;;12.25;11.25;;;20.60;99.90;;;;;;5007401;28;20207;-57
2022/07/21 03:00:47;;;;;;;11.80;10.57;;;20.60;99.90;;;;;;5007307;28;20187;-57
2022/07/21 03:03:13;;;;;;;12.07;10.93;;;20.70;99.90;;;;;;5010061;28;20202;-57
2022/07/21 03:05:39;;;;;;;12.37;11.20;;;20.90;99.90;;;;;;5011299;28;20194;-56
2022/07/21 03:08:06;;;;;;;11.63;10.63;;;21.00;99.90;;;;;;5013020;28;20182;-57
2022/07/21 03:10:32;;;;;;;12.60;10.73;;;21.00;99.90;;;;;;5012953;28;20183;-57
2022/07/21 03:12:58;;;;;;;11.37;10.47;;;21.00;99.90;;;;;;5011898;28;20195;-57
2022/07/21 03:15:24;;;;;;;13.30;12.10;;;21.00;99.90;;;;;;5012931;28;20218;-57
2022/07/21 03:17:49;;;;;;;12.33;11.10;;;20.90;99.90;;;;;;5013475;28;20293;-57
2022/07/21 03:20:15;;;;;;;13.27;11.97;;;20.80;99.90;;;;;;5026906;28;20828;-57
2022/07/21 03:22:41;;;;;;;12.83;11.63;;;20.50;99.90;;;;;;5012311;28;20281;-57
2022/07/21 03:25:07;;;;;;;13.57;12.47;;;20.60;99.90;;;;;;5011082;28;20450;-57
2022/07/21 03:27:35;;;;;;;12.02;10.98;;;20.40;99.90;;;;;;5010773;28;20252;-56
2022/07/21 03:30:06;;;;;;;13.25;12.15;;;20.30;99.90;;;;;;5006214;28;20680;-56
2022/07/21 03:32:32;;;;;;;11.85;10.70;;;20.20;99.90;;;;;;5011210;28;20259;-56
2022/07/21 03:34:58;;;;;;;12.90;11.70;;;20.20;99.90;;;;;;5011497;28;20283;-56
2022/07/21 03:37:23;;;;;;;12.63;11.50;;;20.30;99.90;;;;;;5012095;28;20813;-57
2022/07/21 03:39:49;;;;;;;11.23;10.20;;;20.20;99.90;;;;;;5012275;28;20684;-57
2022/07/21 03:42:15;;;;;;;13.00;11.40;;;20.20;99.90;;;;;;5005663;28;20302;-56
2022/07/21 03:44:40;;;;;;;11.40;10.50;;;20.30;99.90;;;;;;5011551;28;20238;-57
2022/07/21 03:47:06;;;;;;;10.93;10.03;;;20.30;99.90;;;;;;5011575;28;20268;-56
2022/07/21 03:49:31;;;;;;;11.13;10.23;;;20.30;99.90;;;;;;5011209;28;20191;-56
2022/07/21 03:51:57;;;;;;;11.40;10.40;;;20.40;99.90;;;;;;5012477;28;20584;-56
2022/07/21 03:54:22;;;;;;;10.67;9.67;;;20.40;99.90;;;;;;5011115;28;20206;-57
2022/07/21 03:56:48;;;;;;;9.53;8.83;;;20.50;99.90;;;;;;5009217;28;20206;-56
2022/07/21 03:59:13;;;;;;;9.47;8.67;;;20.70;99.90;;;;;;5011078;28;20187;-57
2022/07/21 04:01:39;;;;;;;12.13;11.13;;;20.90;99.90;;;;;;5006901;28;20679;-56
2022/07/21 04:04:05;;;;;;;10.20;9.30;;;21.10;99.90;;;;;;5012294;28;20492;-56
2022/07/21 04:06:30;;;;;;;8.90;8.20;;;21.10;99.90;;;;;;5011804;28;20201;-57
2022/07/21 04:08:56;;;;;;;9.50;8.63;;;21.10;99.90;;;;;;5012383;28;20262;-56
2022/07/21 04:11:21;;;;;;;11.00;10.00;;;21.30;99.90;;;;;;5012246;28;20175;-57
2022/07/21 04:13:47;;;;;;;12.17;11.17;;;21.40;99.90;;;;;;5011944;28;20190;-56
2022/07/21 04:16:12;;;;;;;12.03;11.13;;;21.40;99.90;;;;;;5011043;28;20284;-57
2022/07/21 04:18:38;;;;;;;10.53;9.57;;;21.10;99.90;;;;;;5011710;28;20183;-56
2022/07/21 04:21:04;;;;;;;10.83;9.87;;;21.00;99.90;;;;;;5011691;28;20195;-56
2022/07/21 04:23:29;;;;;;;10.90;10.00;;;21.00;99.90;;;;;;5009767;28;20210;-58
2022/07/21 04:25:55;;;;;;;10.83;9.83;;;20.90;99.90;;;;;;5013260;28;20179;-59
2022/07/21 04:28:20;;;;;;;11.10;10.10;;;20.90;99.90;;;;;;5010640;28;20827;-58
2022/07/21 04:30:46;;;;;;;10.77;9.87;;;20.90;99.90;;;;;;5008754;28;20195;-60
2022/07/21 04:33:11;;;;;;;11.00;9.80;;;20.80;99.90;;;;;;5008317;28;20198;-58
2022/07/21 04:35:37;;;;;;;12.37;11.00;;;20.80;99.90;;;;;;5011268;28;20187;-59
2022/07/21 04:38:03;;;;;;;11.90;10.83;;;20.80;99.90;;;;;;5009202;28;20293;-59
2022/07/21 04:40:28;;;;;;;11.20;10.20;;;20.70;99.90;;;;;;5010701;28;20187;-59
2022/07/21 04:42:54;;;;;;;10.87;9.73;;;20.80;99.90;;;;;;5011775;28;20277;-59
2022/07/21 04:45:19;;;;;;;11.00;10.10;;;20.90;99.90;;;;;;5009286;28;20652;-59
2022/07/21 04:47:50;;;;;;;10.97;9.77;;;20.80;99.90;;;;;;5011076;28;20268;-59
2022/07/21 04:50:18;;;;;;;10.85;9.95;;;20.90;99.90;;;;;;5009777;28;20909;-59
2022/07/21 04:52:44;;;;;;;11.20;10.10;;;21.00;99.90;;;;;;5010610;28;20183;-58
2022/07/21 04:55:10;;;;;;;11.87;10.70;;;21.00;99.90;;;;;;5008109;28;20179;-61
2022/07/21 04:57:40;;;;;;;11.80;10.80;;;21.00;99.90;;;;;;5007142;28;20461;-57
2022/07/21 05:00:08;;;;;;;12.60;11.43;;;20.90;99.90;;;;;;5007411;28;20174;-62
2022/07/21 05:02:34;;;;;;;11.38;10.30;;;20.90;99.90;;;;;;5005954;28;20237;-60
2022/07/21 05:05:01;;;;;;;11.93;10.97;;;20.90;99.90;;;;;;5007894;28;20214;-59
2022/07/21 05:07:26;;;;;;;11.35;10.35;;;20.90;99.90;;;;;;5007929;28;20199;-58
2022/07/21 05:09:52;;;;;;;13.07;11.30;;;20.90;99.90;;;;;;5008988;28;20191;-58
2022/07/21 05:12:18;;;;;;;12.20;11.00;;;20.80;99.90;;;;;;5009941;28;20433;-58
2022/07/21 05:14:43;;;;;;;11.10;10.20;;;20.90;99.90;;;;;;5009287;28;21283;-60
2022/07/21 05:17:09;;;;;;;11.23;10.23;;;20.90;99.90;;;;;;5013367;28;20285;-59
2022/07/21 05:19:34;;;;;;;12.07;10.97;;;20.90;99.90;;;;;;5009658;28;20220;-59
2022/07/21 05:22:00;;;;;;;10.63;9.73;;;20.90;99.90;;;;;;5009738;28;20222;-59
2022/07/21 05:24:25;;;;;;;9.50;8.77;;;20.90;99.90;;;;;;5010918;28;20902;-58
2022/07/21 05:26:51;;;;;;;10.97;9.87;;;21.00;99.90;;;;;;5007292;28;20207;-59
2022/07/21 05:29:16;;;;;;;10.10;9.33;;;21.00;99.90;;;;;;5008577;28;20183;-58
2022/07/21 05:31:42;;;;;;;10.23;9.33;;;21.00;99.90;;;;;;5009320;28;20202;-59
2022/07/21 05:34:07;;;;;;;10.67;9.83;;;21.30;99.90;;;;;;5010914;28;20197;-59
2022/07/21 05:36:33;;;;;;;9.67;8.90;;;21.20;99.90;;;;;;5007307;28;21188;-58
2022/07/21 05:38:58;;;;;;;10.93;9.93;;;21.30;99.90;;;;;;5010801;28;20719;-62
2022/07/21 05:41:24;;;;;;;10.73;9.87;;;21.40;99.90;;;;;;5001577;28;20663;-61
2022/07/21 05:43:50;;;;;;;11.00;9.90;;;21.50;99.90;;;;;;4999013;28;20210;-62
2022/07/21 05:46:15;;;;;;;11.17;10.27;;;21.60;99.90;;;;;;5002382;28;20249;-66
2022/07/21 05:48:41;;;;;;;12.10;10.90;;;21.80;99.90;;;;;;5008613;28;20321;-65
2022/07/21 05:51:07;;;;;;;10.57;9.67;;;21.70;99.90;;;;;;5024223;28;20187;-65
2022/07/21 05:53:33;;;;;;;10.33;9.43;;;21.80;99.90;;;;;;5005397;28;20195;-65
2022/07/21 05:55:58;;;;;;;10.77;9.87;;;22.10;99.90;;;;;;5007045;28;20466;-69
2022/07/21 05:58:24;;;;;;;10.67;9.87;;;22.30;99.90;;;;;;5008416;28;20573;-66
2022/07/21 06:01:08;;;;;;;10.30;9.40;;;22.20;99.90;;;;;;5009853;28;20273;-68
2022/07/21 06:03:36;;;;;;;11.23;9.77;;;22.20;99.90;;;;;;5002022;28;20215;-68
2022/07/21 06:06:02;;;;;;;11.40;10.40;;;22.30;99.90;;;;;;5004254;28;20852;-66
2022/07/21 06:08:27;;;;;;;11.17;10.27;;;22.30;99.90;;;;;;5009866;28;20426;-67
2022/07/21 06:10:53;;;;;;;11.30;10.30;;;22.40;99.90;;;;;;5009078;28;20546;-72
2022/07/21 06:13:18;;;;;;;12.57;11.47;;;22.50;99.90;;;;;;5007034;28;20186;-72
2022/07/21 06:15:44;;;;;;;11.87;10.80;;;22.60;99.90;;;;;;5006173;28;20183;-73
2022/07/21 06:18:10;;;;;;;12.10;10.90;;;22.70;99.90;;;;;;4998727;28;20270;-68
2022/07/21 06:20:35;;;;;;;16.03;11.17;;;22.70;99.90;;;;;;5007378;28;20252;-61
2022/07/21 06:23:01;;;;;;;12.37;11.27;;;22.70;99.90;;;;;;5003677;28;20734;-62
2022/07/21 06:25:26;;;;;;;11.63;10.73;;;22.90;99.90;;;;;;5007125;28;20221;-61
2022/07/21 06:27:52;;;;;;;11.00;9.97;;;23.00;99.90;;;;;;5023886;28;20222;-71
2022/07/21 06:30:17;;;;;;;11.77;10.60;;;23.10;99.90;;;;;;5024904;28;20189;-71
2022/07/21 06:32:43;;;;;;;10.83;9.90;;;23.00;99.90;;;;;;5003899;28;20657;-70
2022/07/21 06:35:09;;;;;;;11.80;10.60;;;23.10;99.90;;;;;;5008912;28;20206;-72
2022/07/21 06:37:35;;;;;;;11.13;10.13;;;23.10;99.90;;;;;;5008549;28;20215;-67
2022/07/21 06:40:00;;;;;;;10.40;9.50;;;23.20;99.90;;;;;;5013485;28;20957;-70
2022/07/21 06:42:26;;;;;;;10.40;9.33;;;23.50;99.90;;;;;;5013459;28;20190;-70
2022/07/21 06:44:51;;;;;;;10.27;9.37;;;23.60;99.90;;;;;;5027394;28;20214;-70
2022/07/21 06:47:17;;;;;;;11.90;10.80;;;23.70;99.90;;;;;;5005563;28;20248;-67
2022/07/21 06:49:43;;;;;;;12.10;10.97;;;23.60;99.90;;;;;;5011679;28;20245;-65
2022/07/21 06:52:09;;;;;;;10.10;9.20;;;23.70;99.90;;;;;;5013443;28;20899;-66
2022/07/21 06:54:35;;;;;;;10.00;9.20;;;23.80;99.90;;;;;;5005937;28;20190;-67
2022/07/21 06:57:00;;;;;;;9.37;8.50;;;24.10;99.90;;;;;;5013329;28;20216;-67
2022/07/21 06:59:26;;;;;;;10.83;10.03;;;23.60;99.90;;;;;;5009300;28;20190;-68
2022/07/21 07:01:51;;;;;;;9.70;8.90;;;23.80;99.90;;;;;;5009179;28;20214;-69
2022/07/21 07:04:17;;;;;;;10.20;9.40;;;24.00;99.90;;;;;;5011625;28;20233;-70
2022/07/21 07:06:42;;;;;;;9.77;9.07;;;24.10;99.90;;;;;;5009576;28;20214;-67
2022/07/21 07:09:08;;;;;;;10.50;9.57;;;24.20;99.90;;;;;;5013340;28;20191;-69
2022/07/21 07:11:34;;;;;;;9.00;8.30;;;24.90;99.90;;;;;;5012429;28;20193;-58
2022/07/21 07:14:00;;;;;;;9.87;9.07;;;26.20;99.70;;;;;;5010517;28;20212;-58
2022/07/21 07:16:26;;;;;;;8.47;7.83;;;27.90;95.20;;;;;;5013368;28;20290;-59
2022/07/21 07:18:51;;;;;;;9.43;8.53;;;30.20;90.70;;;;;;5012698;28;20557;-58
2022/07/21 07:21:17;;;;;;;9.93;9.10;;;32.00;83.00;;;;;;5010293;28;20225;-59
2022/07/21 07:23:43;;;;;;;8.90;8.20;;;32.20;79.20;;;;;;5010476;28;20313;-59
2022/07/21 07:26:08;;;;;;;9.67;8.77;;;32.30;77.90;;;;;;5010115;28;20233;-58
2022/07/21 07:28:34;;;;;;;8.60;7.90;;;33.10;72.30;;;;;;5010518;28;20599;-59
2022/07/21 07:31:00;;;;;;;8.63;7.93;;;34.10;70.60;;;;;;5011370;28;20671;-60
2022/07/21 07:33:27;;;;;;;8.20;7.60;;;35.30;64.80;;;;;;5011522;28;20453;-59
2022/07/21 07:35:52;;;;;;;9.37;8.67;;;35.10;62.60;;;;;;5010483;28;20234;-59
2022/07/21 07:38:18;;;;;;;8.50;7.83;;;35.00;61.80;;;;;;5010947;28;20441;-64
2022/07/21 07:40:44;;;;;;;8.80;7.87;;;34.80;60.00;;;;;;5009804;28;20217;-66
2022/07/21 07:43:09;;;;;;;8.33;7.70;;;35.40;59.30;;;;;;5010431;28;20215;-69
2022/07/21 07:45:36;;;;;;;8.53;7.87;;;35.20;59.30;;;;;;5010322;28;20199;-69
2022/07/21 07:48:01;;;;;;;8.90;8.20;;;35.20;59.60;;;;;;5007965;28;20706;-68
2022/07/21 07:50:28;;;;;;;8.93;8.33;;;35.00;59.20;;;;;;5012610;28;20552;-70
2022/07/21 07:52:54;;;;;;;9.63;8.83;;;35.70;58.60;;;;;;5008948;28;20271;-70
2022/07/21 07:55:19;;;;;;;8.70;7.93;;;36.00;57.50;;;;;;5010090;28;20544;-69
2022/07/21 07:57:45;;;;;;;8.17;7.60;;;36.00;55.70;;;;;;5008882;28;20203;-72
2022/07/21 08:00:15;;;;;;;8.40;7.70;;;36.40;55.00;;;;;;5010301;28;20748;-69
2022/07/21 08:02:41;;;;;;;11.63;10.80;;;35.10;56.90;;;;;;5005420;28;20183;-64
2022/07/21 08:05:08;;;;;;;12.37;11.47;;;36.90;54.60;;;;;;5011123;28;20473;-64
2022/07/21 08:07:35;;;;;;;8.60;7.87;;;37.40;53.20;;;;;;5008805;28;21003;-63
2022/07/21 08:10:00;;;;;;;8.97;8.23;;;36.40;52.40;;;;;;5012333;28;20556;-64
2022/07/21 08:12:26;;;;;;;9.20;8.40;;;35.50;54.40;;;;;;5010355;28;20536;-63
2022/07/21 08:14:52;;;;;;;8.30;7.50;;;37.40;53.40;;;;;;5009565;28;20241;-64
2022/07/21 08:17:17;;;;;;;8.33;7.63;;;38.20;50.70;;;;;;5010006;28;20258;-63
2022/07/21 08:19:43;;;;;;;7.77;7.27;;;37.80;50.20;;;;;;5007076;28;20673;-61
2022/07/21 08:22:09;;;;;;;8.13;7.43;;;34.60;51.90;;;;;;5025223;28;20190;-63
2022/07/21 08:24:35;;;;;;;8.27;7.57;;;33.80;56.10;;;;;;5011201;28;20480;-63
2022/07/21 08:27:00;;;;;;;7.93;7.40;;;32.90;58.10;;;;;;5009941;28;20586;-63
2022/07/21 08:29:26;;;;;;;8.50;7.60;;;31.70;59.70;;;;;;5007326;28;20198;-63
2022/07/21 08:31:51;;;;;;;8.80;8.10;;;30.70;63.20;;;;;;5010185;28;20193;-62
2022/07/21 08:34:17;;;;;;;8.60;8.00;;;31.20;63.30;;;;;;5010307;28;20275;-65
2022/07/21 08:36:43;;;;;;;8.60;7.80;;;31.60;63.10;;;;;;5007151;28;20292;-65
2022/07/21 08:39:08;;;;;;;8.30;7.60;;;32.90;61.00;;;;;;5005426;28;20190;-66
2022/07/21 08:41:36;;;;;;;8.33;7.70;;;34.10;57.40;;;;;;5008715;28;20213;-62
2022/07/21 08:44:02;;;;;;;8.43;7.83;;;33.90;56.10;;;;;;5007481;28;20206;-63
2022/07/21 08:46:29;;;;;;;8.00;7.27;;;33.30;56.60;;;;;;5010877;28;20854;-63
2022/07/21 08:48:56;;;;;;;8.43;7.83;;;32.20;56.70;;;;;;5008066;28;20197;-62
2022/07/21 08:51:22;;;;;;;8.80;8.10;;;31.10;59.80;;;;;;5008346;28;20985;-61
2022/07/21 08:53:48;;;;;;;11.70;10.70;;;30.70;63.40;;;;;;5010096;28;20472;-63
2022/07/21 08:56:14;;;;;;;8.50;8.00;;;30.60;65.30;;;;;;5009470;28;20233;-64
2022/07/21 08:58:40;;;;;;;7.80;7.20;;;31.10;64.50;;;;;;5009185;28;20458;-62
2022/07/21 09:01:06;;;;;;;10.07;9.27;;;32.90;60.70;;;;;;5008672;28;20450;-61
2022/07/21 09:03:32;;;;;;;8.83;8.13;;;34.10;56.30;;;;;;5010359;28;20206;-61
2022/07/21 09:06:00;;;;;;;8.10;7.40;;;34.60;55.70;;;;;;5007260;28;20446;-61
2022/07/21 09:08:34;;;;;;;7.60;7.00;;;36.80;53.00;;;;;;5025439;28;20454;-63
2022/07/21 09:11:08;;;;;;;7.50;6.97;;;37.80;50.10;;;;;;5007631;28;20472;-62
2022/07/21 09:13:33;;;;;;;7.10;6.57;;;37.00;47.30;;;;;;5007275;28;20465;-63
2022/07/21 09:15:59;;;;;;;6.63;6.23;;;38.60;46.20;;;;;;5008801;28;20559;-60
2022/07/21 09:18:25;;;;;;;7.40;6.80;;;39.00;46.10;;;;;;5009000;28;20187;-61
2022/07/21 09:20:52;;;;;;;6.97;6.47;;;39.60;45.00;;;;;;5008070;28;20198;-62
2022/07/21 09:23:20;;;;;;;7.13;6.53;;;39.20;43.00;;;;;;5009888;28;20550;-68
2022/07/21 09:25:48;;;;;;;6.57;5.90;;;38.80;44.30;;;;;;5009436;28;20460;-69
2022/07/21 09:28:18;;;;;;;6.50;6.00;;;38.10;42.90;;;;;;5010979;28;20445;-64
2022/07/21 09:30:48;;;;;;;7.20;6.70;;;37.70;43.00;;;;;;5009655;28;20450;-64
2022/07/21 09:33:38;;;;;;;7.40;6.83;;;39.10;42.60;;;;;;5011633;28;20503;-64
2022/07/21 09:36:12;;;;;;;6.90;6.40;;;38.40;42.90;;;;;;5009850;28;20465;-63
2022/07/21 09:38:44;;;;;;;7.30;6.80;;;38.90;42.90;;;;;;5010619;28;20444;-64
2022/07/21 09:41:15;;;;;;;7.07;6.57;;;38.80;42.20;;;;;;5005066;28;20954;-63
2022/07/21 09:43:43;;;;;;;7.00;6.50;;;38.80;42.60;;;;;;5008279;28;20528;-64
2022/07/21 09:46:20;;;;;;;6.73;6.30;;;39.20;42.00;;;;;;5003606;28;20834;-60
2022/07/21 09:48:48;;;;;;;7.00;6.60;;;40.00;41.60;;;;;;5001028;28;20545;-59
2022/07/21 09:51:32;;;;;;;7.57;6.97;;;39.60;40.80;;;;;;5002085;28;20481;-66
2022/07/21 09:54:04;;;;;;;6.50;6.10;;;40.10;40.10;;;;;;5007549;28;20460;-61
2022/07/21 09:56:32;;;;;;;6.73;6.23;;;40.60;40.20;;;;;;5005591;28;20469;-62
2022/07/21 09:58:59;;;;;;;7.23;6.77;;;40.00;39.00;;;;;;5003291;28;20586;-61
2022/07/21 10:01:26;;;;;;;6.40;5.80;;;39.50;39.00;;;;;;5003221;28;20949;-62
2022/07/21 10:03:57;;;;;;;6.87;6.37;;;39.90;39.10;;;;;;5003793;28;20531;-61
2022/07/21 10:06:28;;;;;;;6.87;6.37;;;40.10;38.60;;;;;;5008183;28;20500;-61
2022/07/21 10:08:57;;;;;;;6.50;6.00;;;40.00;37.80;;;;;;5007692;28;20436;-62
2022/07/21 10:11:23;;;;;;;6.00;5.60;;;40.00;38.30;;;;;;5008578;28;20448;-62
2022/07/21 10:13:49;;;;;;;5.63;5.23;;;40.60;37.70;;;;;;5006806;28;20454;-64
2022/07/21 10:16:15;;;;;;;5.80;5.40;;;40.20;37.80;;;;;;5008721;28;21045;-63
2022/07/21 10:18:59;;;;;;;4.90;4.60;;;39.80;36.50;;;;;;5009467;28;20430;-61
2022/07/21 10:21:31;;;;;;;6.13;5.60;;;39.90;37.10;;;;;;5023143;28;20228;-61
2022/07/21 10:23:57;;;;;;;5.07;4.70;;;39.40;37.90;;;;;;5011344;28;20466;-61
2022/07/21 10:26:23;;;;;;;5.33;4.93;;;38.60;38.10;;;;;;5012673;28;20505;-61
2022/07/21 10:28:49;;;;;;;5.03;4.70;;;37.90;38.90;;;;;;5009169;28;20911;-61
2022/07/21 10:31:20;;;;;;;5.47;4.97;;;36.40;39.60;;;;;;5008365;28;20441;-61
2022/07/21 10:33:46;;;;;;;5.47;4.97;;;35.10;42.10;;;;;;5009762;28;20183;-60
2022/07/21 10:36:33;;;;;;;5.43;4.93;;;33.80;43.80;;;;;;5004407;28;20846;-60
2022/07/21 10:39:12;;;;;;;5.90;5.40;;;32.50;47.40;;;;;;5009324;28;20239;-60
2022/07/21 10:41:42;;;;;;;5.37;4.97;;;32.10;49.30;;;;;;5010473;28;20520;-60
2022/07/21 10:44:44;;;;;;;4.90;4.50;;;31.50;49.40;;;;;;5007470;28;20477;-60
2022/07/21 10:47:20;;;;;;;4.60;4.30;;;30.90;49.50;;;;;;4966684;28;20498;-60
2022/07/21 10:49:50;;;;;;;4.60;4.30;;;30.50;49.80;;;;;;5002630;28;21021;-59
2022/07/21 10:52:34;;;;;;;4.70;4.30;;;30.90;50.60;;;;;;5008572;28;20464;-60
2022/07/21 10:55:26;;;;;;;6.13;5.53;;;30.90;50.30;;;;;;5006776;28;20537;-60
2022/07/21 10:58:14;;;;;;;5.93;5.20;;;31.20;50.60;;;;;;5022448;28;20831;-60
2022/07/21 11:00:43;;;;;;;4.87;4.47;;;31.10;50.60;;;;;;5003162;28;20436;-60
2022/07/21 11:03:18;;;;;;;6.77;6.27;;;30.60;51.40;;;;;;5008645;28;20422;-60
2022/07/21 11:06:13;;;;;;;5.40;5.00;;;31.10;51.70;;;;;;5006949;28;20433;-61
2022/07/21 11:08:47;;;;;;;5.50;5.10;;;30.90;50.20;;;;;;5024331;28;20479;-61
2022/07/21 11:11:28;;;;;;;5.03;4.60;;;30.70;51.90;;;;;;5002511;28;20433;-61
2022/07/21 11:14:14;;;;;;;4.80;4.50;;;30.20;51.70;;;;;;5004548;28;20518;-61
2022/07/21 11:16:43;;;;;;;5.33;4.83;;;30.30;51.60;;;;;;5005984;28;20445;-61
2022/07/21 11:19:45;;;;;;;4.93;4.63;;;31.40;49.50;;;;;;5024047;28;20843;-62
2022/07/21 11:22:27;;;;;;;4.77;4.47;;;32.60;48.30;;;;;;5008949;28;20799;-61
2022/07/21 11:24:57;;;;;;;6.40;4.47;;;33.80;45.50;;;;;;5008518;28;20558;-59
2022/07/21 11:27:25;;;;;;;4.73;4.33;;;34.80;43.10;;;;;;5012003;28;20457;-58
2022/07/21 11:29:59;;;;;;;6.00;5.40;;;33.60;44.50;;;;;;5003960;28;20949;-58
2022/07/21 11:32:26;;;;;;;5.27;4.87;;;33.50;44.70;;;;;;5013154;28;20451;-58
2022/07/21 11:34:57;;;;;;;5.33;4.73;;;33.20;44.20;;;;;;5011498;28;20456;-59
2022/07/21 11:37:32;;;;;;;5.47;4.97;;;32.70;45.00;;;;;;5011783;28;20938;-58
2022/07/21 11:39:58;;;;;;;5.13;4.73;;;33.30;44.70;;;;;;5012128;28;20995;-59
2022/07/21 11:42:26;;;;;;;4.80;4.50;;;32.60;45.40;;;;;;5012240;28;20486;-58
2022/07/21 11:44:52;;;;;;;4.83;4.43;;;32.00;46.80;;;;;;5011076;28;20579;-58
2022/07/21 11:47:20;;;;;;;5.23;4.83;;;31.90;47.10;;;;;;5012041;28;20473;-59
2022/07/21 11:49:45;;;;;;;4.97;4.67;;;31.40;47.40;;;;;;5011105;28;20957;-58
2022/07/21 11:52:17;;;;;;;5.33;5.00;;;31.10;48.20;;;;;;5012103;28;20456;-58
2022/07/21 11:54:49;;;;;;;5.33;5.00;;;30.60;48.80;;;;;;5015702;28;20648;-58
2022/07/21 11:57:17;;;;;;;6.13;5.73;;;30.50;49.80;;;;;;5011971;28;20488;-58
2022/07/21 11:59:43;;;;;;;6.03;5.57;;;30.30;49.70;;;;;;5007955;28;20504;-58
2022/07/21 12:02:12;;;;;;;6.17;5.67;;;30.00;51.10;;;;;;5008940;28;20452;-58
2022/07/21 12:04:47;;;;;;;6.07;5.50;;;30.00;52.40;;;;;;5011657;28;20555;-58
2022/07/21 12:07:18;;;;;;;5.10;4.77;;;29.90;53.00;;;;;;5010908;28;20539;-59
2022/07/21 12:09:45;;;;;;;5.13;4.73;;;29.60;53.00;;;;;;5012155;28;20425;-58
2022/07/21 12:12:12;;;;;;;8.50;7.90;;;29.60;53.70;;;;;;5010738;28;20431;-59
2022/07/21 12:14:39;;;;;;;8.47;5.40;;;29.40;54.50;;;;;;5011876;28;20432;-60
2022/07/21 12:17:04;;;;;;;5.80;5.30;;;29.50;53.60;;;;;;5008027;28;20468;-58
2022/07/21 12:19:30;;;;;;;6.10;5.70;;;29.60;54.50;;;;;;5008651;28;20460;-58
2022/07/21 12:21:56;;;;;;;4.97;4.63;;;29.80;54.10;;;;;;5012010;28;20648;-59
2022/07/21 12:24:21;;;;;;;4.87;4.47;;;29.70;53.80;;;;;;5011525;28;20695;-59
2022/07/21 12:26:47;;;;;;;5.60;5.20;;;29.90;51.80;;;;;;5011069;28;20256;-59
2022/07/21 12:29:29;;;;;;;5.43;5.03;;;29.90;51.50;;;;;;5010513;28;20297;-58
2022/07/21 12:31:55;;;;;;;5.87;5.37;;;29.80;51.60;;;;;;5010930;28;20186;-59
2022/07/21 12:34:21;;;;;;;6.47;6.07;;;29.50;52.20;;;;;;5011354;28;20444;-59
2022/07/21 12:36:47;;;;;;;6.30;5.80;;;29.20;54.20;;;;;;5009937;28;20489;-59
2022/07/21 12:42:06;;;;;;;6.27;5.67;;;29.20;55.60;;;;;;5010698;28;20508;-58
2022/07/21 12:44:32;;;;;;;6.17;5.67;;;29.10;55.20;;;;;;5016681;28;20484;-59
2022/07/21 12:47:16;;;;;;;6.57;6.07;;;29.10;55.90;;;;;;5010680;28;20579;-58